Time,TemperatureF,DewpointF,PressureIn,WindDirection,WindDirectionDegrees,WindSpeedMPH,WindSpeedGustMPH,Humidity,HourlyPrecipIn,Conditions,Clouds,dailyrainin,SolarRadiationWatts/m^2,SoftwareType,DateUTC
2013-01-21 00:02:00,24.0,9.0,-100.00,NE,53,2.0,4.0,52,0.00,,,0.00,0.000000,,2013-01-21 07:02:00,
2013-01-21 00:12:00,24.0,9.0,-100.00,NE,53,2.0,4.0,52,0.00,,,0.00,0.000000,,2013-01-21 07:12:00,
2013-01-21 00:22:00,24.0,9.0,-100.00,NE,53,2.0,4.0,52,0.00,,,0.00,0.000000,,2013-01-21 07:22:00,
2013-01-21 00:32:00,24.0,9.0,-100.00,NE,53,2.0,4.0,52,0.00,,,0.00,0.000000,,2013-01-21 07:32:00,
2013-01-21 00:53:00,22.0,10.0,-100.00,NE,45,5.0,7.0,58,0.00,,,0.00,0.000000,,2013-01-21 07:53:00,
2013-01-21 01:02:00,22.0,10.0,-100.00,NE,45,5.0,7.0,58,0.00,,,0.00,0.000000,,2013-01-21 08:02:00,
2013-01-21 01:13:00,22.0,10.0,-100.00,NE,45,5.0,7.0,58,0.00,,,0.00,0.000000,,2013-01-21 08:13:00,
2013-01-21 01:22:00,22.0,10.0,-100.00,NE,45,5.0,7.0,58,0.00,,,0.00,0.000000,,2013-01-21 08:22:00,
2013-01-21 01:32:00,22.0,10.0,-100.00,NE,45,5.0,7.0,58,0.00,,,0.00,0.000000,,2013-01-21 08:32:00,
2013-01-21 01:53:00,21.0,11.0,-100.00,NE,56,7.0,8.0,64,0.00,,,0.00,0.000000,,2013-01-21 08:53:00,
2013-01-21 02:02:00,21.0,11.0,-100.00,NE,56,7.0,8.0,64,0.00,,,0.00,0.000000,,2013-01-21 09:02:00,
2013-01-21 02:12:00,21.0,11.0,-100.00,NE,56,7.0,8.0,64,0.00,,,0.00,0.000000,,2013-01-21 09:12:00,
2013-01-21 02:22:00,21.0,11.0,-100.00,NE,56,7.0,8.0,64,0.00,,,0.00,0.000000,,2013-01-21 09:22:00,
2013-01-21 02:32:00,21.0,11.0,-100.00,NE,56,7.0,8.0,64,0.00,,,0.00,0.000000,,2013-01-21 09:32:00,
2013-01-21 02:53:00,21.0,9.0,-100.00,NE,56,8.0,11.0,60,0.00,,,0.00,0.000000,,2013-01-21 09:53:00,
2013-01-21 03:02:00,21.0,9.0,-100.00,NE,56,8.0,11.0,60,0.00,,,0.00,0.000000,,2013-01-21 10:02:00,
2013-01-21 03:12:00,21.0,9.0,-100.00,NE,56,8.0,11.0,60,0.00,,,0.00,0.000000,,2013-01-21 10:12:00,
2013-01-21 03:22:00,21.0,9.0,-100.00,NE,56,8.0,11.0,60,0.00,,,0.00,0.000000,,2013-01-21 10:22:00,
2013-01-21 03:32:00,21.0,9.0,-100.00,NE,56,8.0,11.0,60,0.00,,,0.00,0.000000,,2013-01-21 10:32:00,
2013-01-21 03:52:00,20.0,8.0,-100.00,ENE,62,7.0,10.0,59,0.00,,,0.00,0.000000,,2013-01-21 10:52:00,
2013-01-21 04:02:00,20.0,8.0,-100.00,ENE,62,7.0,10.0,59,0.00,,,0.00,0.000000,,2013-01-21 11:02:00,
2013-01-21 04:12:00,20.0,8.0,-100.00,ENE,62,7.0,10.0,59,0.00,,,0.00,0.000000,,2013-01-21 11:12:00,
2013-01-21 04:22:00,20.0,8.0,-100.00,ENE,62,7.0,10.0,59,0.00,,,0.00,0.000000,,2013-01-21 11:22:00,
2013-01-21 04:32:00,20.0,8.0,-100.00,ENE,62,7.0,10.0,59,0.00,,,0.00,0.000000,,2013-01-21 11:32:00,
2013-01-21 04:53:00,21.0,9.0,-100.00,ENE,63,7.0,9.0,59,0.00,,,0.00,0.000000,,2013-01-21 11:53:00,
2013-01-21 05:02:00,21.0,9.0,-100.00,ENE,63,7.0,9.0,59,0.00,,,0.00,0.000000,,2013-01-21 12:02:00,
2013-01-21 05:12:00,21.0,9.0,-100.00,ENE,63,7.0,9.0,59,0.00,,,0.00,0.000000,,2013-01-21 12:12:00,
2013-01-21 05:22:00,21.0,9.0,-100.00,ENE,63,7.0,9.0,59,0.00,,,0.00,0.000000,,2013-01-21 12:22:00,
2013-01-21 05:32:00,21.0,9.0,-100.00,ENE,63,7.0,9.0,59,0.00,,,0.00,0.000000,,2013-01-21 12:32:00,
2013-01-21 05:53:00,21.0,10.0,-100.00,NE,54,9.0,10.0,63,0.00,,,0.00,0.000000,,2013-01-21 12:53:00,
2013-01-21 06:02:00,21.0,10.0,-100.00,NE,54,9.0,10.0,63,0.00,,,0.00,0.000000,,2013-01-21 13:02:00,
2013-01-21 06:12:00,21.0,10.0,-100.00,NE,54,9.0,10.0,63,0.00,,,0.00,0.000000,,2013-01-21 13:12:00,
2013-01-21 06:22:00,21.0,10.0,-100.00,NE,54,9.0,10.0,63,0.00,,,0.00,0.000000,,2013-01-21 13:22:00,
2013-01-21 06:32:00,21.0,10.0,-100.00,NE,54,9.0,10.0,63,0.00,,,0.00,0.000000,,2013-01-21 13:32:00,
2013-01-21 06:53:00,17.0,7.0,-100.00,East,83,6.0,13.0,65,0.00,,,0.00,0.000000,,2013-01-21 13:53:00,
2013-01-21 07:03:00,17.0,7.0,-100.00,East,83,6.0,13.0,65,0.00,,,0.00,0.000000,,2013-01-21 14:03:00,
2013-01-21 07:12:00,17.0,7.0,-100.00,East,83,6.0,13.0,65,0.00,,,0.00,0.000000,,2013-01-21 14:12:00,
2013-01-21 07:22:00,17.0,7.0,-100.00,East,83,6.0,13.0,65,0.00,,,0.00,0.000000,,2013-01-21 14:22:00,
2013-01-21 07:32:00,17.0,7.0,-100.00,East,83,6.0,13.0,65,0.00,,,0.00,0.000000,,2013-01-21 14:32:00,
2013-01-21 07:53:00,18.0,8.0,-100.00,ENE,73,3.0,9.0,63,0.00,,,0.00,1.000000,,2013-01-21 14:53:00,
2013-01-21 08:03:00,18.0,8.0,-100.00,ENE,73,3.0,9.0,63,0.00,,,0.00,1.000000,,2013-01-21 15:03:00,
2013-01-21 08:13:00,18.0,8.0,-100.00,ENE,73,3.0,9.0,63,0.00,,,0.00,1.000000,,2013-01-21 15:13:00,
2013-01-21 08:22:00,18.0,8.0,-100.00,ENE,73,3.0,9.0,63,0.00,,,0.00,1.000000,,2013-01-21 15:22:00,
2013-01-21 08:32:00,18.0,8.0,-100.00,ENE,73,3.0,9.0,63,0.00,,,0.00,1.000000,,2013-01-21 15:32:00,
2013-01-21 08:53:00,23.0,7.0,-100.00,NE,56,6.0,8.0,49,0.00,,,0.00,87.000000,,2013-01-21 15:53:00,
2013-01-21 09:12:00,23.0,7.0,-100.00,NE,56,6.0,8.0,49,0.00,,,0.00,87.000000,,2013-01-21 16:12:00,
2013-01-21 09:23:00,23.0,7.0,-100.00,NE,56,6.0,8.0,49,0.00,,,0.00,87.000000,,2013-01-21 16:23:00,
2013-01-21 09:32:00,23.0,7.0,-100.00,NE,56,6.0,8.0,49,0.00,,,0.00,87.000000,,2013-01-21 16:32:00,
2013-01-21 09:53:00,26.0,8.0,-100.00,ENE,76,4.0,13.0,45,-99.99,,,0.00,254.000000,,2013-01-21 16:53:00,
2013-01-21 10:02:00,26.0,8.0,-100.00,ENE,76,4.0,13.0,45,-99.99,,,0.00,254.000000,,2013-01-21 17:02:00,
2013-01-21 10:12:00,26.0,8.0,-100.00,ENE,76,4.0,13.0,45,-99.99,,,0.00,254.000000,,2013-01-21 17:12:00,
2013-01-21 10:22:00,26.0,8.0,-100.00,ENE,76,4.0,13.0,45,-99.99,,,0.00,254.000000,,2013-01-21 17:22:00,
2013-01-21 10:33:00,26.0,8.0,-100.00,ENE,76,4.0,13.0,45,-99.99,,,0.00,254.000000,,2013-01-21 17:33:00,
2013-01-21 10:53:00,34.0,9.0,-100.00,East,92,1.0,9.0,34,0.00,,,0.00,97.000000,,2013-01-21 17:53:00,
2013-01-21 11:02:00,34.0,9.0,-100.00,East,92,1.0,9.0,34,0.00,,,0.00,97.000000,,2013-01-21 18:02:00,
2013-01-21 11:12:00,34.0,9.0,-100.00,East,92,1.0,9.0,34,0.00,,,0.00,97.000000,,2013-01-21 18:12:00,
2013-01-21 11:22:00,34.0,9.0,-100.00,East,92,1.0,9.0,34,0.00,,,0.00,97.000000,,2013-01-21 18:22:00,
2013-01-21 11:33:00,34.0,9.0,-100.00,East,92,1.0,9.0,34,0.00,,,0.00,97.000000,,2013-01-21 18:33:00,
2013-01-21 11:53:00,33.0,6.0,-100.00,NE,52,4.0,8.0,32,0.00,,,0.00,441.000000,,2013-01-21 18:53:00,
2013-01-21 12:03:00,33.0,6.0,-100.00,NE,52,4.0,8.0,32,0.00,,,0.00,441.000000,,2013-01-21 19:03:00,
2013-01-21 12:12:00,33.0,6.0,-100.00,NE,52,4.0,8.0,32,0.00,,,0.00,441.000000,,2013-01-21 19:12:00,
2013-01-21 12:22:00,33.0,6.0,-100.00,NE,52,4.0,8.0,32,0.00,,,0.00,441.000000,,2013-01-21 19:22:00,
2013-01-21 12:32:00,33.0,6.0,-100.00,NE,52,4.0,8.0,32,0.00,,,0.00,441.000000,,2013-01-21 19:32:00,
2013-01-21 12:53:00,32.0,6.0,-100.00,NE,55,8.0,11.0,33,0.00,,,0.00,613.000000,,2013-01-21 19:53:00,
2013-01-21 13:32:00,32.0,6.0,-100.00,NE,55,8.0,11.0,33,0.00,,,0.00,613.000000,,2013-01-21 20:32:00,
2013-01-21 13:53:00,38.0,6.0,-100.00,East,83,3.0,9.0,26,0.00,,,0.00,619.000000,,2013-01-21 20:53:00,
2013-01-21 14:03:00,38.0,6.0,-100.00,East,83,3.0,9.0,26,0.00,,,0.00,619.000000,,2013-01-21 21:03:00,
2013-01-21 14:12:00,38.0,6.0,-100.00,East,83,3.0,9.0,26,0.00,,,0.00,619.000000,,2013-01-21 21:12:00,
2013-01-21 14:22:00,38.0,6.0,-100.00,East,83,3.0,9.0,26,0.00,,,0.00,619.000000,,2013-01-21 21:22:00,
2013-01-21 14:32:00,38.0,6.0,-100.00,East,83,3.0,9.0,26,0.00,,,0.00,619.000000,,2013-01-21 21:32:00,
2013-01-21 14:53:00,43.0,9.0,-100.00,SSE,155,2.0,5.0,24,0.00,,,0.00,541.000000,,2013-01-21 21:53:00,
2013-01-21 15:03:00,43.0,9.0,-100.00,SSE,155,2.0,5.0,24,0.00,,,0.00,541.000000,,2013-01-21 22:03:00,
2013-01-21 15:12:00,43.0,9.0,-100.00,SSE,155,2.0,5.0,24,0.00,,,0.00,541.000000,,2013-01-21 22:12:00,
2013-01-21 15:22:00,43.0,9.0,-100.00,SSE,155,2.0,5.0,24,0.00,,,0.00,541.000000,,2013-01-21 22:22:00,
2013-01-21 15:32:00,43.0,9.0,-100.00,SSE,155,2.0,5.0,24,0.00,,,0.00,541.000000,,2013-01-21 22:32:00,
2013-01-21 15:53:00,41.0,10.0,-100.00,SSW,193,4.0,7.0,28,0.00,,,0.00,404.000000,,2013-01-21 22:53:00,
2013-01-21 16:03:00,41.0,10.0,-100.00,SSW,193,4.0,7.0,28,0.00,,,0.00,404.000000,,2013-01-21 23:03:00,
2013-01-21 16:12:00,41.0,10.0,-100.00,SSW,193,4.0,7.0,28,0.00,,,0.00,404.000000,,2013-01-21 23:12:00,
2013-01-21 16:22:00,41.0,10.0,-100.00,SSW,193,4.0,7.0,28,0.00,,,0.00,404.000000,,2013-01-21 23:22:00,
2013-01-21 16:32:00,41.0,10.0,-100.00,SSW,193,4.0,7.0,28,0.00,,,0.00,404.000000,,2013-01-21 23:32:00,
2013-01-21 16:53:00,41.0,10.0,-100.00,SSW,202,2.0,6.0,28,0.00,,,0.00,230.000000,,2013-01-21 23:53:00,
2013-01-21 17:02:00,41.0,10.0,-100.00,SSW,202,2.0,6.0,28,0.00,,,0.00,230.000000,,2013-01-22 00:02:00,
2013-01-21 17:12:00,41.0,10.0,-100.00,SSW,202,2.0,6.0,28,0.00,,,0.00,230.000000,,2013-01-22 00:12:00,
2013-01-21 17:22:00,41.0,10.0,-100.00,SSW,202,2.0,6.0,28,0.00,,,0.00,230.000000,,2013-01-22 00:22:00,
2013-01-21 17:32:00,41.0,10.0,-100.00,SSW,202,2.0,6.0,28,0.00,,,0.00,230.000000,,2013-01-22 00:32:00,
2013-01-21 17:53:00,34.0,9.0,-100.00,SSW,192,3.0,4.0,34,0.00,,,0.00,42.000000,,2013-01-22 00:53:00,
2013-01-21 18:02:00,34.0,9.0,-100.00,SSW,192,3.0,4.0,34,0.00,,,0.00,42.000000,,2013-01-22 01:02:00,
2013-01-21 18:12:00,34.0,9.0,-100.00,SSW,192,3.0,4.0,34,0.00,,,0.00,42.000000,,2013-01-22 01:12:00,
2013-01-21 18:22:00,34.0,9.0,-100.00,SSW,192,3.0,4.0,34,0.00,,,0.00,42.000000,,2013-01-22 01:22:00,
2013-01-21 18:32:00,34.0,9.0,-100.00,SSW,192,3.0,4.0,34,0.00,,,0.00,42.000000,,2013-01-22 01:32:00,
2013-01-21 18:52:00,32.0,4.0,-100.00,SE,135,3.0,5.0,30,0.00,,,0.00,0.000000,,2013-01-22 01:52:00,
2013-01-21 19:02:00,32.0,4.0,-100.00,SE,135,3.0,5.0,30,0.00,,,0.00,0.000000,,2013-01-22 02:02:00,
2013-01-21 19:12:00,32.0,4.0,-100.00,SE,135,3.0,5.0,30,0.00,,,0.00,0.000000,,2013-01-22 02:12:00,
2013-01-21 19:22:00,32.0,4.0,-100.00,SE,135,3.0,5.0,30,0.00,,,0.00,0.000000,,2013-01-22 02:22:00,
2013-01-21 19:32:00,32.0,4.0,-100.00,SE,135,3.0,5.0,30,0.00,,,0.00,0.000000,,2013-01-22 02:32:00,
2013-01-21 19:53:00,30.0,2.0,-100.00,SSE,155,0.0,4.0,30,0.00,,,0.00,0.000000,,2013-01-22 02:53:00,
2013-01-21 20:02:00,30.0,2.0,-100.00,SSE,155,0.0,4.0,30,0.00,,,0.00,0.000000,,2013-01-22 03:02:00,
2013-01-21 20:12:00,30.0,2.0,-100.00,SSE,155,0.0,4.0,30,0.00,,,0.00,0.000000,,2013-01-22 03:12:00,
2013-01-21 20:22:00,30.0,2.0,-100.00,SSE,155,0.0,4.0,30,0.00,,,0.00,0.000000,,2013-01-22 03:22:00,
2013-01-21 20:32:00,30.0,2.0,-100.00,SSE,155,0.0,4.0,30,0.00,,,0.00,0.000000,,2013-01-22 03:32:00,
2013-01-21 20:52:00,29.0,4.0,-100.00,NE,51,0.0,3.0,33,0.00,,,0.00,0.000000,,2013-01-22 03:52:00,
2013-01-21 21:02:00,29.0,4.0,-100.00,NE,51,0.0,3.0,33,0.00,,,0.00,0.000000,,2013-01-22 04:02:00,
2013-01-21 21:12:00,29.0,4.0,-100.00,NE,51,0.0,3.0,33,0.00,,,0.00,0.000000,,2013-01-22 04:12:00,
2013-01-21 21:22:00,29.0,4.0,-100.00,NE,51,0.0,3.0,33,0.00,,,0.00,0.000000,,2013-01-22 04:22:00,
2013-01-21 21:32:00,29.0,4.0,-100.00,NE,51,0.0,3.0,33,0.00,,,0.00,0.000000,,2013-01-22 04:32:00,
2013-01-21 21:52:00,29.0,5.0,-100.00,NNE,29,2.0,4.0,36,0.00,,,0.00,0.000000,,2013-01-22 04:52:00,
2013-01-21 22:03:00,29.0,5.0,-100.00,NNE,29,2.0,4.0,36,0.00,,,0.00,0.000000,,2013-01-22 05:03:00,
2013-01-21 22:12:00,29.0,5.0,-100.00,NNE,29,2.0,4.0,36,0.00,,,0.00,0.000000,,2013-01-22 05:12:00,
2013-01-21 22:22:00,29.0,5.0,-100.00,NNE,29,2.0,4.0,36,0.00,,,0.00,0.000000,,2013-01-22 05:22:00,
2013-01-21 22:32:00,29.0,5.0,-100.00,NNE,29,2.0,4.0,36,0.00,,,0.00,0.000000,,2013-01-22 05:32:00,
2013-01-21 22:53:00,27.0,6.0,-100.00,ENE,64,4.0,6.0,41,0.00,,,0.00,0.000000,,2013-01-22 05:53:00,
2013-01-21 23:02:00,27.0,6.0,-100.00,ENE,64,4.0,6.0,41,0.00,,,0.00,0.000000,,2013-01-22 06:02:00,
2013-01-21 23:12:00,27.0,6.0,-100.00,ENE,64,4.0,6.0,41,0.00,,,0.00,0.000000,,2013-01-22 06:12:00,
2013-01-21 23:22:00,27.0,6.0,-100.00,ENE,64,4.0,6.0,41,0.00,,,0.00,0.000000,,2013-01-22 06:22:00,
2013-01-21 23:32:00,27.0,6.0,-100.00,ENE,64,4.0,6.0,41,0.00,,,0.00,0.000000,,2013-01-22 06:32:00,
2013-01-21 23:53:00,27.0,11.0,-100.00,ENE,63,4.0,5.0,50,0.00,,,-99.99,0.000000,,2013-01-22 06:53:00,